Time;durP1;ratioP1;P1;durP2;ratioP2;P2;SDS_P1;SDS_P2;PMS_P1;PMS_P2;Temp;Humidity;BMP_temperature;BMP_pressure;BME280_temperature;BME280_humidity;BME280_pressure;Samples;Min_cycle;Max_cycle;Signal;HPM_P1;HPM_P2
2023/03/05 00:01:40;;;;;;;22.80;7.80;;;;;;;0.34;68.70;98663.66;108890;1253;110798;-75
2023/03/05 00:04:14;;;;;;;23.30;6.60;;;;;;;0.36;68.84;98666.94;108602;1253;100682;-75
2023/03/05 00:06:42;;;;;;;27.00;8.40;;;;;;;0.35;68.60;98666.10;108573;1253;106435;-75
2023/03/05 00:09:10;;;;;;;27.80;8.20;;;;;;;0.31;68.46;98663.09;108916;1252;95927;-74
2023/03/05 00:11:38;;;;;;;23.60;6.30;;;;;;;0.28;68.46;98662.30;108806;1253;95764;-75
2023/03/05 00:14:06;;;;;;;20.10;6.60;;;;;;;0.27;68.57;98666.35;108883;1253;111257;-75
2023/03/05 00:16:34;;;;;;;20.40;5.10;;;;;;;0.28;68.73;98664.77;108585;1253;100562;-75
2023/03/05 00:19:03;;;;;;;14.00;4.60;;;;;;;0.29;68.69;98662.64;108817;1253;107645;-75
2023/03/05 00:21:35;;;;;;;18.40;4.60;;;;;;;0.28;68.70;98660.38;108848;1253;95663;-75
2023/03/05 00:24:06;;;;;;;18.10;4.60;;;;;;;0.28;68.79;98656.38;108745;1257;95929;-75
2023/03/05 00:26:37;;;;;;;15.10;4.10;;;;;;;0.27;68.55;98656.09;108749;1253;111405;-74
2023/03/05 00:29:08;;;;;;;9.60;3.70;;;;;;;0.26;68.43;98655.95;108638;1253;101387;-75
2023/03/05 00:31:47;;;;;;;15.40;4.20;;;;;;;0.24;68.46;98657.40;108576;1253;107249;-75
2023/03/05 00:34:17;;;;;;;12.40;4.10;;;;;;;0.23;68.45;98653.42;108584;1259;95583;-82
2023/03/05 00:36:50;;;;;;;13.10;3.90;;;;;;;0.20;68.31;98650.43;108667;1253;95646;-76
2023/03/05 00:39:20;;;;;;;12.40;3.70;;;;;;;0.17;68.32;98646.54;108821;1253;110772;-75
2023/03/05 00:41:47;;;;;;;11.90;3.90;;;;;;;0.14;68.35;98643.13;108873;1253;101100;-75
2023/03/05 00:44:15;;;;;;;14.60;4.30;;;;;;;0.14;68.27;98647.50;108588;1257;107568;-78
2023/03/05 00:46:50;;;;;;;15.80;4.20;;;;;;;0.15;68.46;98640.66;108766;1253;95707;-76
2023/03/05 00:49:21;;;;;;;14.00;4.10;;;;;;;0.15;68.42;98636.98;108530;1253;95663;-76
2023/03/05 00:51:49;;;;;;;13.10;4.30;;;;;;;0.14;68.19;98638.42;108770;1253;109815;-76
2023/03/05 00:54:17;;;;;;;12.40;3.70;;;;;;;0.13;68.24;98639.84;108831;1253;100887;-76
2023/03/05 00:56:47;;;;;;;14.00;4.30;;;;;;;0.12;68.18;98638.50;108807;1257;107374;-76
2023/03/05 00:59:18;;;;;;;14.80;3.80;;;;;;;0.10;68.22;98633.70;108596;1253;95645;-76
2023/03/05 01:01:46;;;;;;;14.60;4.30;;;;;;;0.09;68.13;98632.49;108808;1253;96016;-76
2023/03/05 01:04:24;;;;;;;11.10;3.70;;;;;;;0.10;68.12;98627.41;108840;1253;110871;-80
2023/03/05 01:06:55;;;;;;;10.60;3.30;;;;;;;0.10;68.13;98628.29;108604;1253;100904;-76
2023/03/05 01:09:26;;;;;;;13.80;4.10;;;;;;;0.08;68.12;98627.30;108477;1253;107572;-76
2023/03/05 01:11:59;;;;;;;14.20;3.70;;;;;;;0.06;67.97;98625.98;108877;1254;95648;-76
2023/03/05 01:14:27;;;;;;;11.80;3.90;;;;;;;0.04;67.92;98627.30;108762;1253;96437;-76
2023/03/05 01:16:55;;;;;;;12.10;3.50;;;;;;;0.02;68.05;98625.28;108803;1253;110904;-76
2023/03/05 01:19:23;;;;;;;11.60;3.60;;;;;;;0.00;67.93;98621.66;108874;1252;100569;-76
2023/03/05 01:21:52;;;;;;;12.50;4.60;;;;;;;-0.02;67.89;98616.16;108860;1252;107649;-75
2023/03/05 01:24:21;;;;;;;8.20;2.90;;;;;;;-0.05;67.71;98617.31;108722;1254;95637;-75
2023/03/05 01:26:52;;;;;;;11.60;3.30;;;;;;;-0.10;67.56;98615.41;108523;1253;95616;-75
2023/03/05 01:29:20;;;;;;;8.30;3.30;;;;;;;-0.15;67.42;98616.11;108512;1253;110906;-75
2023/03/05 01:31:48;;;;;;;11.60;3.60;;;;;;;-0.20;67.48;98623.77;108871;1253;101081;-75
2023/03/05 01:34:17;;;;;;;13.50;3.40;;;;;;;-0.26;67.53;98619.30;108619;1254;106700;-75
2023/03/05 01:36:48;;;;;;;11.90;3.60;;;;;;;-0.30;67.57;98618.73;108631;1253;95575;-75
2023/03/05 01:39:17;;;;;;;15.20;4.00;;;;;;;-0.36;67.62;98621.91;108507;1253;96070;-76
2023/03/05 01:41:46;;;;;;;10.70;3.40;;;;;;;-0.40;67.54;98628.66;108750;1258;111267;-75
2023/03/05 01:44:26;;;;;;;15.60;3.70;;;;;;;-0.42;67.62;98622.83;108641;1253;99904;-75
2023/03/05 01:46:54;;;;;;;12.50;3.80;;;;;;;-0.45;67.61;98625.03;108708;1253;107015;-75
2023/03/05 01:49:34;;;;;;;13.30;3.70;;;;;;;-0.49;67.62;98622.02;108808;1252;95684;-75
2023/03/05 01:52:18;;;;;;;15.40;4.20;;;;;;;-0.51;67.68;98630.80;108764;1253;95686;-75
2023/03/05 01:55:09;;;;;;;9.60;3.70;;;;;;;-0.50;67.72;98632.16;108624;1254;111273;-75
2023/03/05 01:57:42;;;;;;;13.00;3.60;;;;;;;-0.52;67.79;98632.23;108814;1254;100890;-75
2023/03/05 02:00:21;;;;;;;11.10;4.20;;;;;;;-0.55;67.62;98625.51;108593;1259;108061;-75
2023/03/05 02:02:53;;;;;;;11.80;3.50;;;;;;;-0.61;67.56;98628.02;108657;1252;95595;-75
2023/03/05 02:05:27;;;;;;;12.00;3.90;;;;;;;-0.70;67.56;98624.98;108626;1254;95735;-75
2023/03/05 02:08:02;;;;;;;14.90;4.30;;;;;;;-0.77;67.36;98624.34;108712;1254;110749;-75
2023/03/05 02:10:37;;;;;;;15.70;4.70;;;;;;;-0.85;67.20;98624.09;108562;1253;101078;-77
2023/03/05 02:13:17;;;;;;;13.00;4.50;;;;;;;-0.92;67.15;98626.77;108637;1254;107640;-74
2023/03/05 02:15:55;;;;;;;16.00;4.90;;;;;;;-1.00;67.08;98629.45;108724;1253;95625;-74
2023/03/05 02:18:24;;;;;;;12.40;3.90;;;;;;;-1.11;67.15;98626.50;108762;1253;95608;-74
2023/03/05 02:20:55;;;;;;;14.90;4.80;;;;;;;-1.19;66.96;98620.13;108750;1257;110876;-74
2023/03/05 02:23:26;;;;;;;14.40;4.70;;;;;;;-1.26;67.29;98621.57;108846;1253;101420;-74
2023/03/05 02:25:55;;;;;;;15.90;5.80;;;;;;;-1.29;67.04;98616.98;108820;1252;107706;-74
2023/03/05 02:28:46;;;;;;;16.00;6.30;;;;;;;-1.35;67.03;98618.36;108780;1253;95604;-77
2023/03/05 02:31:18;;;;;;;17.00;5.60;;;;;;;-1.42;67.11;98617.55;108674;1253;95602;-80
2023/03/05 02:33:48;;;;;;;20.10;5.70;;;;;;;-1.45;67.39;98626.36;108719;1253;112024;-73
2023/03/05 02:36:18;;;;;;;17.00;5.50;;;;;;;-1.47;67.14;98621.73;108597;1253;100570;-74
2023/03/05 02:38:58;;;;;;;15.60;5.40;;;;;;;-1.51;66.94;98619.21;108613;1253;107554;-74
2023/03/05 02:41:26;;;;;;;15.10;5.30;;;;;;;-1.54;67.07;98609.76;108595;1253;95723;-74
2023/03/05 02:43:55;;;;;;;14.80;5.80;;;;;;;-1.60;67.35;98613.23;108747;1255;96062;-75
2023/03/05 02:46:23;;;;;;;14.40;4.70;;;;;;;-1.64;67.06;98610.05;108487;1254;111349;-74
2023/03/05 02:48:51;;;;;;;17.70;5.80;;;;;;;-1.72;66.92;98618.09;108615;1253;101182;-74
2023/03/05 02:51:19;;;;;;;13.80;4.80;;;;;;;-1.79;66.93;98613.25;108510;1254;108378;-74
2023/03/05 02:53:49;;;;;;;20.30;5.50;;;;;;;-1.87;66.83;98609.67;108697;1253;95658;-74
2023/03/05 02:56:19;;;;;;;22.20;7.50;;;;;;;-1.91;66.94;98608.76;108463;1260;95979;-75
2023/03/05 02:58:47;;;;;;;21.30;7.30;;;;;;;-1.92;67.09;98609.67;108747;1257;111264;-75
2023/03/05 03:01:18;;;;;;;22.50;8.20;;;;;;;-1.94;66.83;98605.02;108808;1254;101125;-82
2023/03/05 03:03:47;;;;;;;21.30;7.60;;;;;;;-1.98;66.99;98605.98;108479;1254;108588;-75
2023/03/05 03:06:15;;;;;;;23.70;9.10;;;;;;;-2.02;66.84;98607.17;108742;1254;95897;-78
2023/03/05 03:08:43;;;;;;;24.20;8.10;;;;;;;-2.06;66.82;98599.81;108549;1253;95777;-75
2023/03/05 03:11:12;;;;;;;22.80;7.50;;;;;;;-2.07;67.02;98600.20;108458;1254;110714;-77
2023/03/05 03:13:40;;;;;;;24.20;8.00;;;;;;;-2.11;67.00;98603.42;108769;1254;101518;-74
2023/03/05 03:16:14;;;;;;;23.80;8.70;;;;;;;-2.12;66.96;98609.87;108520;1254;107060;-75
2023/03/05 03:18:43;;;;;;;28.70;11.80;;;;;;;-2.13;67.21;98612.67;108684;1253;95737;-74
2023/03/05 03:21:35;;;;;;;45.00;18.80;;;;;;;-2.14;66.97;98611.48;108918;1253;95598;-74
2023/03/05 03:24:04;;;;;;;40.50;17.20;;;;;;;-2.14;66.88;98611.50;108866;1254;109836;-74
2023/03/05 03:26:32;;;;;;;42.70;17.30;;;;;;;-2.16;67.09;98615.70;108882;1253;100467;-74
2023/03/05 03:29:00;;;;;;;38.40;14.90;;;;;;;-2.17;67.08;98613.13;108855;1252;106703;-74
2023/03/05 03:31:28;;;;;;;38.10;16.70;;;;;;;-2.17;66.97;98610.54;108719;1252;95585;-74
2023/03/05 03:33:57;;;;;;;39.60;18.40;;;;;;;-2.21;66.91;98609.60;108749;1253;95609;-74
2023/03/05 03:36:25;;;;;;;39.20;16.50;;;;;;;-2.23;67.28;98605.48;108817;1253;111219;-74
2023/03/05 03:38:56;;;;;;;36.50;14.50;;;;;;;-2.25;67.07;98605.38;108700;1254;100779;-74
2023/03/05 03:41:24;;;;;;;35.70;13.40;;;;;;;-2.24;66.82;98602.77;108674;1253;106836;-74
2023/03/05 03:43:57;;;;;;;32.90;12.10;;;;;;;-2.25;67.25;98601.18;108851;1253;95607;-75
2023/03/05 03:46:28;;;;;;;26.60;9.00;;;;;;;-2.28;67.16;98601.29;108921;1253;95586;-74
2023/03/05 03:48:56;;;;;;;26.20;8.50;;;;;;;-2.32;66.91;98596.17;108647;1254;111275;-74
2023/03/05 03:51:24;;;;;;;24.50;7.80;;;;;;;-2.35;66.89;98599.58;108833;1252;100961;-74
2023/03/05 03:53:52;;;;;;;22.40;7.10;;;;;;;-2.34;66.87;98592.61;108778;1253;107280;-73
2023/03/05 03:56:20;;;;;;;26.50;7.20;;;;;;;-2.32;66.95;98590.29;108821;1253;95560;-74
2023/03/05 03:58:57;;;;;;;22.30;7.20;;;;;;;-2.27;67.29;98589.09;108857;1253;95620;-74
2023/03/05 04:01:25;;;;;;;26.20;7.80;;;;;;;-2.19;67.21;98585.06;108639;1252;110280;-76
2023/03/05 04:03:56;;;;;;;24.10;8.30;;;;;;;-2.15;66.96;98583.05;108832;1251;100913;-73
2023/03/05 04:06:24;;;;;;;23.40;8.40;;;;;;;-2.12;67.27;98576.52;108629;1253;106924;-74
2023/03/05 04:08:52;;;;;;;21.30;6.90;;;;;;;-2.09;67.27;98573.14;108775;1252;95707;-74
2023/03/05 04:11:20;;;;;;;20.40;6.50;;;;;;;-2.08;67.08;98571.56;108801;1253;95590;-74
2023/03/05 04:14:05;;;;;;;24.70;8.30;;;;;;;-2.05;67.20;98569.20;108709;1253;110968;-74
2023/03/05 04:16:37;;;;;;;25.90;9.90;;;;;;;-2.03;67.16;98564.95;108687;1254;100692;-74
2023/03/05 04:19:07;;;;;;;22.50;8.70;;;;;;;-2.03;67.27;98557.84;108804;1252;107786;-74
2023/03/05 04:21:34;;;;;;;28.10;10.70;;;;;;;-2.06;67.09;98553.77;108786;1253;96049;-74
2023/03/05 04:24:14;;;;;;;32.50;11.30;;;;;;;-2.07;67.34;98550.30;108896;1253;95561;-74
2023/03/05 04:26:43;;;;;;;29.60;9.20;;;;;;;-2.07;67.18;98543.38;108567;1254;111018;-74
2023/03/05 04:29:10;;;;;;;26.10;7.80;;;;;;;-2.03;67.17;98545.00;108864;1252;100848;-74
2023/03/05 04:31:38;;;;;;;24.30;7.80;;;;;;;-2.04;67.29;98545.70;108839;1252;107587;-74
2023/03/05 04:34:06;;;;;;;25.10;7.40;;;;;;;-2.04;67.33;98536.69;108874;1251;95647;-74
2023/03/05 04:36:34;;;;;;;25.10;8.40;;;;;;;-2.05;67.19;98539.48;108679;1257;96019;-74
2023/03/05 04:39:03;;;;;;;22.30;8.40;;;;;;;-2.03;67.30;98539.92;108553;1253;111383;-75
2023/03/05 04:41:32;;;;;;;29.50;12.00;;;;;;;-1.99;67.43;98538.25;108815;1253;100790;-74
2023/03/05 04:44:00;;;;;;;28.30;11.70;;;;;;;-1.91;67.41;98532.28;108789;1252;107637;-74
2023/03/05 04:46:27;;;;;;;29.00;12.00;;;;;;;-1.84;67.64;98536.25;108506;1253;95576;-74
2023/03/05 04:48:57;;;;;;;27.50;12.90;;;;;;;-1.77;67.44;98536.73;108780;1253;95629;-74
2023/03/05 04:51:25;;;;;;;32.70;14.30;;;;;;;-1.72;67.58;98535.88;108654;1253;112175;-74
2023/03/05 04:53:53;;;;;;;28.10;10.80;;;;;;;-1.68;67.47;98531.92;108826;1254;100861;-74
2023/03/05 04:56:21;;;;;;;29.40;12.00;;;;;;;-1.63;67.45;98536.80;108699;1252;107631;-74
2023/03/05 04:58:51;;;;;;;28.30;10.70;;;;;;;-1.60;67.71;98530.98;108717;1253;95592;-74
2023/03/05 05:01:19;;;;;;;30.50;11.40;;;;;;;-1.54;67.59;98531.30;108909;1253;95576;-74
2023/03/05 05:03:47;;;;;;;28.60;9.90;;;;;;;-1.48;67.60;98533.21;108906;1253;110257;-73
2023/03/05 05:06:15;;;;;;;27.10;9.80;;;;;;;-1.43;67.65;98525.23;108857;1253;100875;-77
2023/03/05 05:08:43;;;;;;;26.00;9.60;;;;;;;-1.38;67.58;98526.10;108792;1253;107657;-74
2023/03/05 05:11:13;;;;;;;22.80;8.00;;;;;;;-1.36;67.57;98524.13;108850;1253;95872;-74
2023/03/05 05:13:40;;;;;;;21.90;7.50;;;;;;;-1.32;67.78;98526.61;108719;1253;95584;-73
2023/03/05 05:16:08;;;;;;;21.30;6.80;;;;;;;-1.26;67.54;98524.52;108552;1253;111502;-75
2023/03/05 05:18:37;;;;;;;19.40;5.70;;;;;;;-1.20;67.41;98527.77;108830;1253;101116;-74
2023/03/05 05:21:10;;;;;;;18.90;6.50;;;;;;;-1.15;67.67;98528.31;108803;1253;108214;-74
2023/03/05 05:23:41;;;;;;;18.40;5.90;;;;;;;-1.08;67.85;98527.40;108780;1253;95628;-74
2023/03/05 05:26:14;;;;;;;21.60;7.00;;;;;;;-1.00;68.04;98529.52;108717;1256;95782;-74
2023/03/05 05:28:43;;;;;;;25.40;10.20;;;;;;;-0.96;67.67;98530.09;108824;1253;110729;-74
2023/03/05 05:31:14;;;;;;;27.80;10.30;;;;;;;-0.92;67.94;98532.92;108914;1252;100865;-77
2023/03/05 05:34:05;;;;;;;29.70;11.00;;;;;;;-0.89;67.82;98529.52;108772;1253;108337;-73
2023/03/05 05:36:34;;;;;;;27.80;9.70;;;;;;;-0.86;67.77;98529.27;108722;1253;95827;-74
2023/03/05 05:39:03;;;;;;;23.10;9.20;;;;;;;-0.84;67.52;98533.17;108806;1253;95596;-73
2023/03/05 05:41:31;;;;;;;22.10;8.30;;;;;;;-0.80;67.68;98530.24;108931;1253;111200;-73
2023/03/05 05:43:59;;;;;;;25.60;9.40;;;;;;;-0.77;67.70;98530.66;108792;1252;100915;-73
2023/03/05 05:46:27;;;;;;;24.70;7.70;;;;;;;-0.70;67.83;98525.03;108594;1253;106694;-73
2023/03/05 05:48:56;;;;;;;25.00;9.50;;;;;;;-0.67;67.79;98527.02;108771;1252;95930;-73
2023/03/05 05:51:23;;;;;;;27.50;9.80;;;;;;;-0.65;67.56;98525.55;108914;1252;95580;-73
2023/03/05 05:53:52;;;;;;;30.10;11.10;;;;;;;-0.61;67.62;98523.16;108879;1253;110528;-73
2023/03/05 05:56:20;;;;;;;32.90;13.90;;;;;;;-0.58;67.78;98515.73;108791;1253;99972;-79
2023/03/05 05:58:49;;;;;;;27.70;10.90;;;;;;;-0.56;67.91;98510.27;108787;1252;107322;-73
2023/03/05 06:01:27;;;;;;;27.40;11.10;;;;;;;-0.53;67.69;98510.31;108850;1254;95573;-74
2023/03/05 06:03:56;;;;;;;35.40;12.80;;;;;;;-0.48;67.65;98514.33;108668;1253;95636;-73
2023/03/05 06:06:26;;;;;;;30.30;12.90;;;;;;;-0.42;67.93;98515.69;108571;1252;247571;-74
2023/03/05 06:08:54;;;;;;;29.40;10.70;;;;;;;-0.37;67.98;98518.43;108910;1253;100887;-78
2023/03/05 06:11:22;;;;;;;30.00;11.30;;;;;;;-0.31;67.84;98522.41;108870;1253;107423;-73
2023/03/05 06:13:50;;;;;;;33.40;13.20;;;;;;;-0.28;67.76;98522.67;108860;1252;96018;-74
2023/03/05 06:16:20;;;;;;;23.70;9.50;;;;;;;-0.25;67.73;98521.66;108867;1253;95914;-73
2023/03/05 06:18:50;;;;;;;27.90;12.50;;;;;;;-0.22;67.89;98522.26;108934;1254;111189;-73
2023/03/05 06:21:20;;;;;;;24.90;11.50;;;;;;;-0.19;67.88;98525.29;108913;1253;99711;-73
2023/03/05 06:23:49;;;;;;;23.10;9.20;;;;;;;-0.19;67.47;98527.70;108541;1254;107687;-73
2023/03/05 06:26:19;;;;;;;24.70;9.60;;;;;;;-0.19;67.64;98528.23;108500;1254;95661;-73
2023/03/05 06:28:47;;;;;;;23.60;8.80;;;;;;;-0.17;67.75;98525.70;108808;1253;95724;-73
2023/03/05 06:31:24;;;;;;;24.60;9.00;;;;;;;-0.15;67.68;98523.92;108861;1253;111039;-76
2023/03/05 06:34:01;;;;;;;23.50;8.80;;;;;;;-0.15;67.54;98522.52;108723;1253;101431;-73
2023/03/05 06:36:30;;;;;;;23.20;8.90;;;;;;;-0.16;67.52;98523.77;108804;1252;105442;-73
2023/03/05 06:38:58;;;;;;;23.10;9.40;;;;;;;-0.15;67.50;98526.89;108779;1253;95588;-73
2023/03/05 06:41:29;;;;;;;24.80;9.40;;;;;;;-0.17;67.37;98526.94;108813;1253;95600;-74
2023/03/05 06:43:59;;;;;;;29.80;11.80;;;;;;;-0.17;67.38;98531.81;108746;1253;109421;-73
2023/03/05 06:46:30;;;;;;;37.00;13.80;;;;;;;-0.17;67.41;98536.88;108845;1252;100871;-79
2023/03/05 06:49:00;;;;;;;28.90;9.90;;;;;;;-0.15;67.23;98534.38;108836;1253;107735;-73
2023/03/05 06:51:31;;;;;;;31.40;11.30;;;;;;;-0.14;67.40;98531.73;108872;1252;95564;-73
2023/03/05 06:54:12;;;;;;;34.40;12.20;;;;;;;-0.11;67.28;98535.09;108811;1253;95629;-73
2023/03/05 06:56:44;;;;;;;40.70;16.30;;;;;;;-0.10;67.17;98535.23;108544;1253;111391;-74
2023/03/05 06:59:15;;;;;;;35.80;13.80;;;;;;;-0.06;67.37;98534.72;108814;1252;100594;-73
2023/03/05 07:01:45;;;;;;;42.40;14.90;;;;;;;0.00;67.42;98534.86;108859;1253;106860;-74
2023/03/05 07:04:14;;;;;;;30.70;11.30;;;;;;;0.04;67.31;98533.86;108787;1253;95627;-73
2023/03/05 07:06:42;;;;;;;36.40;13.90;;;;;;;0.06;67.36;98534.09;108859;1252;95593;-73
2023/03/05 07:09:15;;;;;;;39.10;15.40;;;;;;;0.11;67.50;98531.82;108668;1254;111227;-74
2023/03/05 07:11:43;;;;;;;51.70;21.90;;;;;;;0.16;67.49;98530.77;108667;1253;100807;-73
2023/03/05 07:14:11;;;;;;;49.40;20.90;;;;;;;0.20;67.48;98530.44;108865;1252;107134;-73
2023/03/05 07:16:39;;;;;;;59.40;26.80;;;;;;;0.23;67.35;98529.98;108880;1253;95640;-74
2023/03/05 07:19:10;;;;;;;47.20;20.70;;;;;;;0.23;67.41;98528.91;108727;1253;95650;-73
2023/03/05 07:21:44;;;;;;;42.70;20.20;;;;;;;0.26;67.54;98528.30;108530;1253;111088;-73
2023/03/05 07:24:13;;;;;;;42.20;21.00;;;;;;;0.29;67.52;98532.52;108750;1253;101175;-75
2023/03/05 07:26:41;;;;;;;29.10;12.20;;;;;;;0.33;67.64;98529.95;108859;1253;107669;-73
2023/03/05 07:29:09;;;;;;;31.60;15.30;;;;;;;0.37;67.56;98529.09;108864;1253;95719;-73
2023/03/05 07:31:37;;;;;;;35.90;16.90;;;;;;;0.39;67.56;98524.83;108925;1253;95583;-73
2023/03/05 07:34:05;;;;;;;32.50;15.20;;;;;;;0.39;67.34;98526.72;108944;1252;109858;-73
2023/03/05 07:36:34;;;;;;;29.80;12.80;;;;;;;0.40;67.58;98525.98;108866;1253;100918;-74
2023/03/05 07:39:12;;;;;;;26.90;10.50;;;;;;;0.43;67.39;98525.52;108775;1253;107763;-73
2023/03/05 07:41:42;;;;;;;33.60;15.20;;;;;;;0.45;67.42;98520.20;108508;1252;95675;-74
2023/03/05 07:44:23;;;;;;;39.60;16.10;;;;;;;0.48;67.53;98519.55;108817;1253;95706;-73
2023/03/05 07:46:53;;;;;;;29.70;11.60;;;;;;;0.52;67.20;98516.62;108555;1253;111412;-73
2023/03/05 07:49:22;;;;;;;35.90;17.30;;;;;;;0.53;67.39;98515.87;108832;1253;100731;-74
2023/03/05 07:51:53;;;;;;;37.60;17.30;;;;;;;0.57;67.51;98522.52;108776;1253;106672;-73
2023/03/05 07:54:26;;;;;;;28.50;11.30;;;;;;;0.61;67.01;98522.55;108608;1253;95624;-73
2023/03/05 07:56:54;;;;;;;24.20;9.90;;;;;;;0.61;67.17;98522.39;108738;1253;96115;-73
2023/03/05 07:59:24;;;;;;;28.00;12.60;;;;;;;0.64;67.29;98522.58;108532;1253;110434;-73
2023/03/05 08:01:53;;;;;;;34.40;14.80;;;;;;;0.68;67.16;98520.52;108616;1253;101137;-74
2023/03/05 08:04:21;;;;;;;33.30;13.90;;;;;;;0.72;67.19;98520.17;108716;1253;107399;-74
2023/03/05 08:06:49;;;;;;;35.10;14.20;;;;;;;0.77;67.07;98522.08;108784;1253;95945;-73
2023/03/05 08:09:18;;;;;;;31.90;13.30;;;;;;;0.85;67.26;98517.90;108783;1253;95635;-74
2023/03/05 08:11:47;;;;;;;31.00;13.20;;;;;;;0.90;67.24;98512.60;108628;1259;110590;-77
2023/03/05 08:14:16;;;;;;;27.20;10.60;;;;;;;0.97;67.26;98512.34;108826;1252;100588;-78
2023/03/05 08:16:45;;;;;;;36.20;14.00;;;;;;;1.04;66.75;98512.04;108675;1253;107576;-73
2023/03/05 08:19:17;;;;;;;34.10;14.60;;;;;;;1.00;66.30;98510.09;108789;1252;95682;-82
2023/03/05 08:21:54;;;;;;;36.50;15.60;;;;;;;1.01;66.78;98506.40;108769;1253;96060;-73
2023/03/05 08:24:34;;;;;;;32.10;14.20;;;;;;;1.05;66.49;98503.42;108817;1252;111336;-73
2023/03/05 08:27:03;;;;;;;30.20;12.20;;;;;;;1.08;66.57;98497.54;108647;1253;100853;-73
2023/03/05 08:29:31;;;;;;;29.90;12.90;;;;;;;1.11;65.81;98493.41;108691;1253;106136;-73
2023/03/05 08:32:00;;;;;;;32.40;13.30;;;;;;;1.17;66.82;98490.00;108754;1252;95655;-73
2023/03/05 08:34:28;;;;;;;26.40;12.20;;;;;;;1.28;66.91;98489.71;108880;1252;95706;-72
2023/03/05 08:36:56;;;;;;;24.40;9.90;;;;;;;1.30;66.18;98492.73;108775;1253;111289;-73
2023/03/05 08:39:24;;;;;;;28.30;11.70;;;;;;;1.32;66.66;98494.94;108788;1252;100597;-80
2023/03/05 08:41:58;;;;;;;22.80;9.10;;;;;;;1.34;66.57;98495.04;108668;1253;107737;-72
2023/03/05 08:44:26;;;;;;;;;;;;;;;1.35;66.18;98495.17;108638;1254;95648;-73
2023/03/05 08:46:54;;;;;;;22.70;8.90;;;;;;;1.37;66.48;98490.01;108707;1253;95730;-74
2023/03/05 08:49:22;;;;;;;22.90;7.70;;;;;;;1.44;66.09;98486.89;108592;1254;110285;-74
2023/03/05 08:51:51;;;;;;;19.90;7.00;;;;;;;1.51;65.85;98487.13;108624;1253;100577;-73
2023/03/05 08:54:19;;;;;;;19.40;6.80;;;;;;;1.55;65.82;98485.21;108744;1252;107768;-73
2023/03/05 08:56:48;;;;;;;20.70;8.20;;;;;;;1.59;66.05;98482.90;108695;1253;96144;-73
2023/03/05 08:59:16;;;;;;;21.70;7.20;;;;;;;1.69;66.05;98476.52;108809;1252;97013;-74
2023/03/05 09:01:44;;;;;;;19.30;7.40;;;;;;;1.71;65.83;98475.19;108761;1252;110918;-73
2023/03/05 09:04:12;;;;;;;18.90;6.70;;;;;;;1.73;64.91;98475.79;108792;1252;100855;-73
2023/03/05 09:06:40;;;;;;;22.80;8.20;;;;;;;1.72;65.23;98465.53;108624;1253;107665;-75
2023/03/05 09:09:09;;;;;;;25.10;8.40;;;;;;;1.77;66.10;98449.40;108511;1253;95909;-73
2023/03/05 09:11:37;;;;;;;20.50;7.30;;;;;;;1.91;66.14;98463.29;108679;1252;96515;-77
2023/03/05 09:14:05;;;;;;;27.90;10.20;;;;;;;2.00;66.19;98463.90;108693;1252;111265;-71
2023/03/05 09:16:35;;;;;;;22.50;7.40;;;;;;;2.14;66.13;98462.55;108696;1252;101391;-72
2023/03/05 09:19:02;;;;;;;19.90;8.20;;;;;;;2.24;66.05;98456.97;108681;1252;107637;-72
2023/03/05 09:21:31;;;;;;;23.30;7.90;;;;;;;2.31;66.05;98452.61;108621;1252;95926;-71
2023/03/05 09:23:59;;;;;;;25.00;8.90;;;;;;;2.34;65.58;98447.39;108663;1252;96012;-72
2023/03/05 09:26:27;;;;;;;21.60;7.80;;;;;;;2.37;65.03;98446.90;108701;1252;110991;-70
2023/03/05 09:28:55;;;;;;;23.10;8.90;;;;;;;2.37;65.24;98448.31;108713;1252;100499;-70
2023/03/05 09:31:23;;;;;;;21.10;8.10;;;;;;;2.42;65.76;98447.41;108568;1253;106776;-73
2023/03/05 09:33:51;;;;;;;21.30;8.50;;;;;;;2.44;65.42;98444.30;108661;1251;95876;-70
2023/03/05 09:36:22;;;;;;;23.10;8.40;;;;;;;2.47;65.91;98441.16;108501;1253;95970;-70
2023/03/05 09:38:51;;;;;;;22.00;7.20;;;;;;;2.54;66.29;98436.64;108593;1251;111774;-70
2023/03/05 09:41:57;;;;;;;16.60;6.60;;;;;;;2.57;65.23;98441.07;108670;1251;100982;-76
2023/03/05 09:44:33;;;;;;;21.60;7.80;;;;;;;2.48;64.73;98438.54;108671;1252;107636;-70
2023/03/05 09:47:16;;;;;;;21.70;8.00;;;;;;;2.45;64.41;98441.84;108746;1252;95653;-70
2023/03/05 09:50:00;;;;;;;24.50;8.90;;;;;;;2.39;63.91;98441.42;108793;1253;95652;-70
2023/03/05 09:52:36;;;;;;;23.50;8.10;;;;;;;2.32;63.95;98441.01;108821;1252;111292;-70
2023/03/05 09:55:11;;;;;;;24.50;9.50;;;;;;;2.32;64.20;98438.77;108775;1251;100944;-71
2023/03/05 09:57:48;;;;;;;24.20;8.20;;;;;;;2.28;63.68;98438.24;108772;1252;107997;-78
2023/03/05 10:00:40;;;;;;;23.10;7.80;;;;;;;2.28;64.22;98438.44;108604;1252;95600;-70
2023/03/05 10:03:17;;;;;;;26.60;9.60;;;;;;;2.29;64.30;98436.46;108778;1252;95702;-71
2023/03/05 10:05:49;;;;;;;24.50;8.10;;;;;;;2.29;64.99;98438.02;108717;1252;111237;-69
2023/03/05 10:08:23;;;;;;;24.30;8.60;;;;;;;2.33;65.00;98437.99;108693;1253;100903;-70
2023/03/05 10:10:54;;;;;;;23.30;7.90;;;;;;;2.35;64.33;98433.35;108704;1252;106373;-69
2023/03/05 10:13:27;;;;;;;24.30;9.30;;;;;;;2.35;64.21;98431.95;108657;1252;95660;-71
2023/03/05 10:16:33;;;;;;;24.00;9.20;;;;;;;2.31;64.19;98431.27;108678;1253;95901;-69
2023/03/05 10:19:31;;;;;;;25.10;10.60;;;;;;;2.26;63.28;98423.32;108843;1251;109596;-70
2023/03/05 10:22:27;;;;;;;25.80;10.10;;;;;;;2.26;63.44;98421.02;108795;1251;100605;-70
2023/03/05 10:25:10;;;;;;;26.90;9.90;;;;;;;2.22;64.13;98414.76;108815;1252;107077;-71
2023/03/05 10:27:51;;;;;;;20.50;8.10;;;;;;;2.26;64.03;98413.86;108795;1251;95611;-69
2023/03/05 10:30:33;;;;;;;28.60;11.90;;;;;;;2.28;63.13;98410.44;108822;1251;95614;-69
2023/03/05 10:33:14;;;;;;;30.70;12.10;;;;;;;2.29;63.77;98408.84;108823;1251;111289;-71
2023/03/05 10:36:00;;;;;;;39.00;16.70;;;;;;;2.29;63.15;98404.95;108732;1253;101346;-70
2023/03/05 10:38:48;;;;;;;40.00;18.20;;;;;;;2.32;62.87;98403.44;108710;1251;107113;-70
2023/03/05 10:41:25;;;;;;;23.60;8.70;;;;;;;2.30;62.75;98402.13;108687;1252;95899;-69
2023/03/05 10:44:08;;;;;;;32.40;13.20;;;;;;;2.29;63.65;98397.77;108718;1252;95798;-69
2023/03/05 10:46:38;;;;;;;44.90;19.50;;;;;;;2.27;62.57;98389.67;108786;1252;111304;-70
2023/03/05 10:49:17;;;;;;;30.50;14.70;;;;;;;2.27;63.12;98390.02;108674;1253;100907;-69
2023/03/05 10:52:00;;;;;;;31.80;13.50;;;;;;;2.28;63.17;98386.98;108725;1253;107634;-69
2023/03/05 10:54:40;;;;;;;24.40;10.70;;;;;;;2.32;63.33;98387.34;108681;1251;96079;-71
2023/03/05 10:57:25;;;;;;;25.30;9.90;;;;;;;2.29;61.59;98388.84;108656;1252;95672;-69
2023/03/05 11:00:05;;;;;;;29.30;12.10;;;;;;;2.24;62.50;98374.27;108635;1253;110156;-69
2023/03/05 11:02:52;;;;;;;27.40;11.30;;;;;;;2.29;63.22;98373.66;108590;1253;100907;-75
2023/03/05 11:05:50;;;;;;;26.10;10.80;;;;;;;2.33;62.48;98371.88;108729;1252;107668;-68
2023/03/05 11:08:26;;;;;;;26.70;10.90;;;;;;;2.35;62.53;98371.05;108662;1251;95743;-68
2023/03/05 11:11:12;;;;;;;23.10;11.10;;;;;;;2.35;63.23;98368.27;108807;1252;95922;-69
2023/03/05 11:13:43;;;;;;;26.40;12.00;;;;;;;2.48;63.82;98365.89;108653;1253;112105;-72
2023/03/05 11:16:22;;;;;;;26.50;12.80;;;;;;;2.59;63.71;98361.50;108724;1253;100914;-76
2023/03/05 11:19:10;;;;;;;38.80;17.50;;;;;;;2.61;62.93;98356.30;108734;1251;107508;-68
2023/03/05 11:21:38;;;;;;;36.40;17.50;;;;;;;2.59;62.48;98352.04;108800;1251;95696;-69
2023/03/05 11:24:17;;;;;;;29.30;11.70;;;;;;;2.57;62.83;98350.74;108876;1252;95591;-68
2023/03/05 11:26:48;;;;;;;27.50;11.60;;;;;;;2.60;62.96;98340.58;108571;1252;111110;-74
2023/03/05 11:29:23;;;;;;;24.10;9.80;;;;;;;2.70;63.14;98337.26;108842;1252;100716;-69
2023/03/05 11:31:52;;;;;;;30.50;13.40;;;;;;;2.78;63.46;98330.56;108725;1252;107647;-68
2023/03/05 11:34:23;;;;;;;24.10;10.30;;;;;;;2.87;63.89;98321.33;108782;1253;96153;-68
2023/03/05 11:36:52;;;;;;;24.80;9.30;;;;;;;2.93;63.00;98314.34;108717;1252;95589;-68